JBU3018 KJFK-KBOS
Flight info
| Callsign | JBU3018 |
|---|---|
| Flight time | 0h 48m |
| Altitude | 21000 |
| Route | MERIT ROBUC3 |
| Aircraft | A21N/M-SDE2E3FGHIRWXY/LB1 |
Departure
| Time | 2026-05-06 20:51 |
|---|---|
| Airport | John F. Kennedy International Airport (KJFK) |
Arrival
| Time | 2026-05-06 21:39 |
|---|---|
| Airport | Boston Logan International Airport (KBOS) |
| Time | Latitude | Longitude | Altitude | Speed | Heading |
|---|---|---|---|---|---|
| 2026-05-06 20:43 | 40.64893 | -73.77750 | 30 ft | 0 kts | 121° |
| 2026-05-06 20:44 | 40.64892 | -73.77749 | 30 ft | 0 kts | 121° |
| 2026-05-06 20:44 | 40.64891 | -73.77747 | 30 ft | 0 kts | 120° |
| 2026-05-06 20:45 | 40.64872 | -73.77704 | 28 ft | 16 kts | 120° |
| 2026-05-06 20:45 | 40.64847 | -73.77602 | 25 ft | 4 kts | 51° |
| 2026-05-06 20:45 | 40.64918 | -73.77527 | 23 ft | 21 kts | 47° |
| 2026-05-06 20:45 | 40.64922 | -73.77421 | 24 ft | 15 kts | 122° |
| 2026-05-06 20:46 | 40.64839 | -73.77236 | 27 ft | 25 kts | 121° |
| 2026-05-06 20:46 | 40.64749 | -73.77041 | 27 ft | 24 kts | 122° |
| 2026-05-06 20:46 | 40.64761 | -73.76908 | 22 ft | 11 kts | 27° |
| 2026-05-06 20:46 | 40.64807 | -73.76932 | 22 ft | 15 kts | 320° |
| 2026-05-06 20:47 | 40.64860 | -73.77017 | 23 ft | 4 kts | 265° |
| 2026-05-06 20:47 | 40.64814 | -73.77081 | 25 ft | 13 kts | 203° |
| 2026-05-06 20:47 | 40.64759 | -73.77062 | 26 ft | 10 kts | 127° |
| 2026-05-06 20:47 | 40.64700 | -73.76929 | 21 ft | 19 kts | 121° |
| 2026-05-06 20:48 | 40.64692 | -73.76847 | 23 ft | 3 kts | 49° |
| 2026-05-06 20:48 | 40.64729 | -73.76815 | 22 ft | 18 kts | 32° |
| 2026-05-06 20:48 | 40.64865 | -73.76708 | 29 ft | 23 kts | 31° |
| 2026-05-06 20:48 | 40.65022 | -73.76586 | 25 ft | 26 kts | 30° |
| 2026-05-06 20:49 | 40.65106 | -73.76488 | 27 ft | 3 kts | 107° |
| 2026-05-06 20:49 | 40.65100 | -73.76471 | 27 ft | 3 kts | 119° |
| 2026-05-06 20:49 | 40.65047 | -73.76375 | 27 ft | 11 kts | 151° |
| 2026-05-06 20:49 | 40.64996 | -73.76381 | 28 ft | 7 kts | 198° |
| 2026-05-06 20:50 | 40.64873 | -73.76474 | 26 ft | 48 kts | 210° |
| 2026-05-06 20:50 | 40.64409 | -73.76834 | 22 ft | 108 kts | 211° |
| 2026-05-06 20:50 | 40.63586 | -73.77476 | 34 ft | 161 kts | 210° |
| 2026-05-06 20:50 | 40.62606 | -73.78249 | 453 ft | 171 kts | 210° |
| 2026-05-06 20:51 | 40.61508 | -73.79092 | 727 ft | 192 kts | 211° |
| 2026-05-06 20:51 | 40.60328 | -73.79965 | 1141 ft | 203 kts | 211° |
| 2026-05-06 20:51 | 40.59028 | -73.80875 | 1555 ft | 218 kts | 211° |
| 2026-05-06 20:51 | 40.57622 | -73.81715 | 2110 ft | 229 kts | 198° |
| 2026-05-06 20:52 | 40.55978 | -73.81715 | 2595 ft | 249 kts | 170° |
| 2026-05-06 20:52 | 40.54428 | -73.80549 | 3252 ft | 269 kts | 141° |
| 2026-05-06 20:52 | 40.53391 | -73.78434 | 3996 ft | 285 kts | 112° |
| 2026-05-06 20:52 | 40.53132 | -73.75810 | 4758 ft | 296 kts | 84° |
| 2026-05-06 20:53 | 40.53737 | -73.73209 | 5403 ft | 302 kts | 57° |
| 2026-05-06 20:53 | 40.55076 | -73.71095 | 6146 ft | 301 kts | 38° |
| 2026-05-06 20:53 | 40.56746 | -73.69436 | 6847 ft | 303 kts | 27° |
| 2026-05-06 20:53 | 40.58566 | -73.68004 | 7521 ft | 308 kts | 23° |
| 2026-05-06 20:54 | 40.60463 | -73.66637 | 8212 ft | 314 kts | 22° |
| 2026-05-06 20:54 | 40.62419 | -73.65279 | 8929 ft | 321 kts | 21° |
| 2026-05-06 20:54 | 40.64425 | -73.63910 | 9578 ft | 328 kts | 21° |
| 2026-05-06 20:54 | 40.66444 | -73.62543 | 10222 ft | 335 kts | 21° |
| 2026-05-06 20:55 | 40.68578 | -73.61110 | 10545 ft | 354 kts | 21° |
| 2026-05-06 20:55 | 40.70844 | -73.59591 | 10829 ft | 375 kts | 22° |
| 2026-05-06 20:55 | 40.73227 | -73.57989 | 11096 ft | 394 kts | 22° |
| 2026-05-06 20:55 | 40.75723 | -73.56309 | 11364 ft | 410 kts | 22° |
| 2026-05-06 20:56 | 40.78294 | -73.54572 | 11806 ft | 419 kts | 22° |
| 2026-05-06 20:56 | 40.80909 | -73.52802 | 12407 ft | 424 kts | 22° |
| 2026-05-06 20:56 | 40.83550 | -73.51015 | 13021 ft | 428 kts | 22° |
| 2026-05-06 20:56 | 40.86212 | -73.49215 | 13605 ft | 433 kts | 22° |
| 2026-05-06 20:57 | 40.88904 | -73.47393 | 14197 ft | 435 kts | 22° |
| 2026-05-06 20:57 | 40.91598 | -73.45567 | 14932 ft | 435 kts | 22° |
| 2026-05-06 20:57 | 40.94292 | -73.43741 | 15553 ft | 438 kts | 22° |
| 2026-05-06 20:57 | 40.97030 | -73.41884 | 16128 ft | 442 kts | 22° |
| 2026-05-06 20:58 | 40.99780 | -73.40018 | 16723 ft | 446 kts | 22° |
| 2026-05-06 20:58 | 41.02556 | -73.38132 | 17269 ft | 450 kts | 23° |
| 2026-05-06 20:58 | 41.05316 | -73.36255 | 17785 ft | 454 kts | 23° |
| 2026-05-06 20:58 | 41.08179 | -73.34306 | 18285 ft | 458 kts | 23° |
| 2026-05-06 20:59 | 41.10985 | -73.32394 | 18756 ft | 460 kts | 22° |
| 2026-05-06 20:59 | 41.13833 | -73.30451 | 19268 ft | 462 kts | 22° |
| 2026-05-06 20:59 | 41.16690 | -73.28500 | 19768 ft | 463 kts | 21° |
| 2026-05-06 20:59 | 41.19568 | -73.26534 | 20295 ft | 466 kts | 21° |
| 2026-05-06 21:00 | 41.22460 | -73.24555 | 20703 ft | 467 kts | 21° |
| 2026-05-06 21:00 | 41.25354 | -73.22573 | 20827 ft | 467 kts | 21° |
| 2026-05-06 21:00 | 41.28251 | -73.20588 | 20836 ft | 468 kts | 21° |
| 2026-05-06 21:00 | 41.31149 | -73.18600 | 20840 ft | 468 kts | 21° |
| 2026-05-06 21:01 | 41.33970 | -73.16539 | 20835 ft | 473 kts | 27° |
| 2026-05-06 21:01 | 41.36504 | -73.13683 | 20861 ft | 482 kts | 46° |
| 2026-05-06 21:01 | 41.38372 | -73.09968 | 20843 ft | 486 kts | 64° |
| 2026-05-06 21:01 | 41.39405 | -73.05701 | 20848 ft | 485 kts | 81° |
| 2026-05-06 21:02 | 41.39862 | -73.01233 | 20845 ft | 490 kts | 85° |
| 2026-05-06 21:02 | 41.40243 | -72.96646 | 20834 ft | 505 kts | 85° |
| 2026-05-06 21:02 | 41.40664 | -72.91944 | 20824 ft | 518 kts | 84° |
| 2026-05-06 21:02 | 41.41127 | -72.87144 | 20834 ft | 524 kts | 84° |
| 2026-05-06 21:03 | 41.41615 | -72.82323 | 20837 ft | 526 kts | 83° |
| 2026-05-06 21:03 | 41.42114 | -72.77487 | 20837 ft | 526 kts | 83° |
| 2026-05-06 21:03 | 41.42617 | -72.72658 | 20850 ft | 526 kts | 83° |
| 2026-05-06 21:03 | 41.43115 | -72.67888 | 20851 ft | 526 kts | 83° |
| 2026-05-06 21:04 | 41.43621 | -72.63034 | 20851 ft | 526 kts | 83° |
| 2026-05-06 21:04 | 41.44125 | -72.58198 | 20836 ft | 526 kts | 83° |
| 2026-05-06 21:04 | 41.44627 | -72.53364 | 20847 ft | 526 kts | 83° |
| 2026-05-06 21:04 | 41.45128 | -72.48518 | 20849 ft | 527 kts | 83° |
| 2026-05-06 21:05 | 41.45626 | -72.43675 | 20848 ft | 527 kts | 83° |
| 2026-05-06 21:05 | 41.46122 | -72.38842 | 20849 ft | 527 kts | 83° |
| 2026-05-06 21:05 | 41.46611 | -72.34063 | 20846 ft | 527 kts | 84° |
| 2026-05-06 21:05 | 41.47103 | -72.29219 | 20845 ft | 527 kts | 83° |
| 2026-05-06 21:06 | 41.47597 | -72.24389 | 20835 ft | 527 kts | 83° |
| 2026-05-06 21:06 | 41.48486 | -72.19643 | 20853 ft | 527 kts | 69° |
| 2026-05-06 21:06 | 41.49969 | -72.15170 | 20851 ft | 526 kts | 63° |
| 2026-05-06 21:06 | 41.51585 | -72.10792 | 20840 ft | 526 kts | 63° |
| 2026-05-06 21:07 | 41.53214 | -72.06416 | 20839 ft | 526 kts | 63° |
| 2026-05-06 21:07 | 41.54834 | -72.02038 | 20842 ft | 526 kts | 63° |
| 2026-05-06 21:07 | 41.56352 | -71.97591 | 20854 ft | 527 kts | 67° |
| 2026-05-06 21:07 | 41.57714 | -71.93113 | 20865 ft | 527 kts | 68° |
| 2026-05-06 21:08 | 41.59065 | -71.88567 | 20850 ft | 526 kts | 68° |
| 2026-05-06 21:08 | 41.60408 | -71.84021 | 20865 ft | 527 kts | 69° |
| 2026-05-06 21:08 | 41.61747 | -71.79468 | 20864 ft | 527 kts | 69° |
| 2026-05-06 21:08 | 41.63088 | -71.74910 | 20871 ft | 527 kts | 69° |
| 2026-05-06 21:09 | 41.64431 | -71.70341 | 20830 ft | 526 kts | 69° |
| 2026-05-06 21:09 | 41.65764 | -71.65805 | 20469 ft | 524 kts | 69° |
| 2026-05-06 21:09 | 41.67094 | -71.61271 | 19984 ft | 523 kts | 69° |
| 2026-05-06 21:09 | 41.68422 | -71.56742 | 19505 ft | 521 kts | 69° |
| 2026-05-06 21:10 | 41.69296 | -71.53756 | 19182 ft | 519 kts | 69° |
| 2026-05-06 21:10 | 41.71035 | -71.47801 | 18894 ft | 517 kts | 69° |
| 2026-05-06 21:10 | 41.72364 | -71.43339 | 18869 ft | 516 kts | 65° |
| 2026-05-06 21:10 | 41.74072 | -71.39122 | 18872 ft | 515 kts | 60° |
| 2026-05-06 21:11 | 41.75844 | -71.34959 | 18870 ft | 514 kts | 59° |
| 2026-05-06 21:11 | 41.77636 | -71.30808 | 18870 ft | 515 kts | 59° |
| 2026-05-06 21:11 | 41.78820 | -71.28059 | 18870 ft | 515 kts | 59° |
| 2026-05-06 21:11 | 41.80600 | -71.23911 | 18755 ft | 509 kts | 60° |
| 2026-05-06 21:12 | 41.82348 | -71.19820 | 18042 ft | 503 kts | 60° |
| 2026-05-06 21:12 | 41.84079 | -71.15755 | 17331 ft | 495 kts | 60° |
| 2026-05-06 21:12 | 41.85781 | -71.11762 | 16394 ft | 491 kts | 60° |
| 2026-05-06 21:12 | 41.87493 | -71.07794 | 15384 ft | 490 kts | 59° |
| 2026-05-06 21:13 | 41.89746 | -71.02586 | 14219 ft | 484 kts | 60° |
| 2026-05-06 21:13 | 41.90885 | -70.99948 | 13648 ft | 481 kts | 60° |
| 2026-05-06 21:13 | 41.92533 | -70.96128 | 12734 ft | 476 kts | 60° |
| 2026-05-06 21:13 | 41.94184 | -70.92294 | 11864 ft | 470 kts | 60° |
| 2026-05-06 21:14 | 41.95808 | -70.88516 | 11023 ft | 464 kts | 61° |
| 2026-05-06 21:14 | 41.97407 | -70.84794 | 10192 ft | 457 kts | 61° |
| 2026-05-06 21:14 | 41.98984 | -70.81113 | 9535 ft | 444 kts | 62° |
| 2026-05-06 21:14 | 42.00474 | -70.77637 | 9157 ft | 412 kts | 60° |
| 2026-05-06 21:15 | 42.02149 | -70.74631 | 8646 ft | 396 kts | 48° |
| 2026-05-06 21:15 | 42.03981 | -70.71854 | 8382 ft | 398 kts | 48° |
| 2026-05-06 21:15 | 42.05839 | -70.69095 | 8142 ft | 398 kts | 48° |
| 2026-05-06 21:15 | 42.07694 | -70.66336 | 8018 ft | 396 kts | 48° |
| 2026-05-06 21:16 | 42.09512 | -70.63628 | 8018 ft | 394 kts | 47° |
| 2026-05-06 21:16 | 42.11649 | -70.61353 | 7955 ft | 390 kts | 24° |
| 2026-05-06 21:16 | 42.14168 | -70.60225 | 7549 ft | 375 kts | 6° |
| 2026-05-06 21:16 | 42.16730 | -70.59611 | 7009 ft | 374 kts | 4° |
| 2026-05-06 21:17 | 42.19313 | -70.59038 | 6615 ft | 376 kts | 5° |
| 2026-05-06 21:17 | 42.21884 | -70.58418 | 6251 ft | 375 kts | 5° |
| 2026-05-06 21:17 | 42.24442 | -70.57760 | 5870 ft | 374 kts | 6° |
| 2026-05-06 21:17 | 42.26988 | -70.57073 | 5513 ft | 373 kts | 7° |
| 2026-05-06 21:18 | 42.29529 | -70.56374 | 5165 ft | 372 kts | 7° |
| 2026-05-06 21:18 | 42.32054 | -70.56134 | 5018 ft | 355 kts | 344° |
| 2026-05-06 21:18 | 42.34281 | -70.57241 | 5013 ft | 331 kts | 316° |
| 2026-05-06 21:18 | 42.35956 | -70.59268 | 5035 ft | 321 kts | 304° |
| 2026-05-06 21:19 | 42.37460 | -70.61481 | 4998 ft | 317 kts | 300° |
| 2026-05-06 21:19 | 42.38775 | -70.63835 | 4897 ft | 312 kts | 296° |
| 2026-05-06 21:19 | 42.40052 | -70.66223 | 4793 ft | 318 kts | 301° |
| 2026-05-06 21:19 | 42.41721 | -70.68287 | 4708 ft | 333 kts | 317° |
| 2026-05-06 21:20 | 42.43750 | -70.69869 | 4484 ft | 338 kts | 325° |
| 2026-05-06 21:20 | 42.45820 | -70.71280 | 4229 ft | 339 kts | 325° |
| 2026-05-06 21:20 | 42.47880 | -70.72789 | 3972 ft | 324 kts | 317° |
| 2026-05-06 21:20 | 42.49505 | -70.74628 | 3724 ft | 285 kts | 302° |
| 2026-05-06 21:21 | 42.50560 | -70.76681 | 3475 ft | 249 kts | 283° |
| 2026-05-06 21:21 | 42.51078 | -70.78827 | 3241 ft | 236 kts | 274° |
| 2026-05-06 21:21 | 42.51425 | -70.80990 | 3033 ft | 234 kts | 272° |
| 2026-05-06 21:21 | 42.51731 | -70.83118 | 2985 ft | 222 kts | 271° |
| 2026-05-06 21:22 | 42.52015 | -70.85085 | 2994 ft | 204 kts | 270° |
| 2026-05-06 21:22 | 42.52268 | -70.86865 | 3022 ft | 181 kts | 269° |
| 2026-05-06 21:22 | 42.52446 | -70.88453 | 3000 ft | 159 kts | 264° |
| 2026-05-06 21:22 | 42.52400 | -70.89871 | 3010 ft | 145 kts | 251° |
| 2026-05-06 21:23 | 42.52111 | -70.91142 | 2992 ft | 140 kts | 241° |
| 2026-05-06 21:23 | 42.51652 | -70.92204 | 3002 ft | 125 kts | 231° |
| 2026-05-06 21:23 | 42.51038 | -70.93039 | 2958 ft | 126 kts | 218° |
| 2026-05-06 21:23 | 42.50305 | -70.93657 | 2774 ft | 121 kts | 212° |
| 2026-05-06 21:24 | 42.49548 | -70.94148 | 2613 ft | 122 kts | 207° |
| 2026-05-06 21:24 | 42.48745 | -70.94577 | 2441 ft | 124 kts | 203° |
| 2026-05-06 21:24 | 42.47939 | -70.94960 | 2281 ft | 119 kts | 205° |
| 2026-05-06 21:24 | 42.47179 | -70.95329 | 2110 ft | 115 kts | 203° |
| 2026-05-06 21:25 | 42.46422 | -70.95690 | 1949 ft | 117 kts | 202° |
| 2026-05-06 21:25 | 42.45648 | -70.96075 | 1797 ft | 120 kts | 201° |
| 2026-05-06 21:25 | 42.44871 | -70.96454 | 1640 ft | 120 kts | 200° |
| 2026-05-06 21:25 | 42.44105 | -70.96824 | 1481 ft | 114 kts | 200° |
| 2026-05-06 21:26 | 42.43333 | -70.97199 | 1327 ft | 122 kts | 200° |
| 2026-05-06 21:26 | 42.42527 | -70.97592 | 1146 ft | 124 kts | 200° |
| 2026-05-06 21:26 | 42.41712 | -70.97985 | 970 ft | 124 kts | 200° |
| 2026-05-06 21:26 | 42.40899 | -70.98379 | 806 ft | 124 kts | 200° |
| 2026-05-06 21:27 | 42.40092 | -70.98770 | 630 ft | 123 kts | 200° |
| 2026-05-06 21:27 | 42.39281 | -70.99162 | 437 ft | 124 kts | 198° |
| 2026-05-06 21:27 | 42.38477 | -70.99548 | 244 ft | 120 kts | 201° |
| 2026-05-06 21:27 | 42.37684 | -70.99946 | 274 ft | 125 kts | 200° |
| 2026-05-06 21:28 | 42.36808 | -71.00365 | 904 ft | 140 kts | 199° |
| 2026-05-06 21:28 | 42.35862 | -71.00814 | 1774 ft | 145 kts | 200° |
| 2026-05-06 21:28 | 42.34851 | -71.01211 | 2527 ft | 162 kts | 197° |
| 2026-05-06 21:28 | 42.33616 | -71.00935 | 2890 ft | 206 kts | 164° |
| 2026-05-06 21:29 | 42.32442 | -70.99587 | 2971 ft | 233 kts | 139° |
| 2026-05-06 21:29 | 42.31583 | -70.97677 | 2987 ft | 241 kts | 128° |
| 2026-05-06 21:29 | 42.30843 | -70.95635 | 2985 ft | 242 kts | 126° |
| 2026-05-06 21:29 | 42.30418 | -70.93405 | 2985 ft | 259 kts | 98° |
| 2026-05-06 21:30 | 42.30808 | -70.90974 | 2987 ft | 270 kts | 71° |
| 2026-05-06 21:30 | 42.31598 | -70.88653 | 3004 ft | 273 kts | 65° |
| 2026-05-06 21:30 | 42.32466 | -70.86350 | 2992 ft | 277 kts | 66° |
| 2026-05-06 21:30 | 42.33385 | -70.84036 | 2997 ft | 281 kts | 65° |
| 2026-05-06 21:31 | 42.34633 | -70.81984 | 3002 ft | 285 kts | 38° |
| 2026-05-06 21:31 | 42.36286 | -70.80518 | 2995 ft | 283 kts | 27° |
| 2026-05-06 21:31 | 42.37996 | -70.79306 | 2988 ft | 281 kts | 22° |
| 2026-05-06 21:31 | 42.39768 | -70.78169 | 3008 ft | 280 kts | 22° |
| 2026-05-06 21:32 | 42.41538 | -70.77049 | 2992 ft | 280 kts | 21° |
| 2026-05-06 21:32 | 42.45172 | -70.75949 | 3004 ft | 260 kts | 343° |
| 2026-05-06 21:32 | 42.46910 | -70.76518 | 2983 ft | 252 kts | 327° |
| 2026-05-06 21:33 | 42.48404 | -70.77600 | 2986 ft | 234 kts | 312° |
| 2026-05-06 21:33 | 42.49489 | -70.79014 | 2995 ft | 202 kts | 293° |
| 2026-05-06 21:33 | 42.50134 | -70.80605 | 3001 ft | 187 kts | 281° |
| 2026-05-06 21:33 | 42.50584 | -70.82222 | 2991 ft | 186 kts | 277° |
| 2026-05-06 21:34 | 42.51000 | -70.83883 | 2997 ft | 186 kts | 276° |
| 2026-05-06 21:34 | 42.51408 | -70.85546 | 2996 ft | 185 kts | 276° |
| 2026-05-06 21:34 | 42.51806 | -70.87203 | 2985 ft | 184 kts | 276° |
| 2026-05-06 21:34 | 42.52129 | -70.88813 | 2999 ft | 171 kts | 270° |
| 2026-05-06 21:35 | 42.52151 | -70.90385 | 2995 ft | 163 kts | 255° |
| 2026-05-06 21:35 | 42.51810 | -70.91819 | 2992 ft | 158 kts | 238° |
| 2026-05-06 21:35 | 42.51131 | -70.92975 | 2946 ft | 162 kts | 221° |
| 2026-05-06 21:35 | 42.50159 | -70.93797 | 2746 ft | 168 kts | 210° |
| 2026-05-06 21:36 | 42.49075 | -70.94416 | 2520 ft | 170 kts | 205° |
| 2026-05-06 21:36 | 42.47975 | -70.94949 | 2282 ft | 170 kts | 203° |
| 2026-05-06 21:36 | 42.46867 | -70.95481 | 2047 ft | 165 kts | 202° |
| 2026-05-06 21:36 | 42.45829 | -70.95987 | 1849 ft | 152 kts | 201° |
| 2026-05-06 21:37 | 42.44858 | -70.96458 | 1640 ft | 144 kts | 201° |
| 2026-05-06 21:37 | 42.43924 | -70.96912 | 1450 ft | 142 kts | 200° |
| 2026-05-06 21:37 | 42.42994 | -70.97362 | 1250 ft | 143 kts | 200° |
| 2026-05-06 21:37 | 42.42037 | -70.97827 | 1044 ft | 149 kts | 200° |
| 2026-05-06 21:38 | 42.41041 | -70.98311 | 837 ft | 148 kts | 199° |
| 2026-05-06 21:38 | 42.40123 | -70.98754 | 643 ft | 132 kts | 200° |
| 2026-05-06 21:38 | 42.39300 | -70.99154 | 427 ft | 126 kts | 198° |
| 2026-05-06 21:38 | 42.38497 | -70.99535 | 286 ft | 121 kts | 200° |
| 2026-05-06 21:39 | 42.37700 | -70.99927 | 99 ft | 122 kts | 200° |
| 2026-05-06 21:39 | 42.36923 | -71.00305 | 48 ft | 116 kts | 200° |
| 2026-05-06 21:39 | 42.36256 | -71.00625 | 28 ft | 78 kts | 198° |
| 2026-05-06 21:39 | 42.35981 | -71.00759 | 30 ft | 31 kts | 200° |
| 2026-05-06 21:40 | 42.35819 | -71.00851 | 28 ft | 14 kts | 226° |
| 2026-05-06 21:40 | 42.35810 | -71.00897 | 28 ft | 9 kts | 273° |
| 2026-05-06 21:40 | 42.35823 | -71.01029 | 28 ft | 13 kts | 278° |
| 2026-05-06 21:40 | 42.35838 | -71.01174 | 28 ft | 20 kts | 277° |
| 2026-05-06 21:41 | 42.35854 | -71.01343 | 28 ft | 20 kts | 277° |
| 2026-05-06 21:41 | 42.35887 | -71.01517 | 28 ft | 14 kts | 303° |
| 2026-05-06 21:41 | 42.35905 | -71.01539 | 28 ft | 2 kts | 329° |
| 2026-05-06 21:41 | 42.35915 | -71.01543 | 28 ft | 10 kts | 346° |
| 2026-05-06 21:42 | 42.35992 | -71.01502 | 28 ft | 27 kts | 23° |
| 2026-05-06 21:42 | 42.36175 | -71.01411 | 28 ft | 26 kts | 19° |
| 2026-05-06 21:42 | 42.36333 | -71.01334 | 28 ft | 22 kts | 20° |
| 2026-05-06 21:42 | 42.36481 | -71.01262 | 29 ft | 22 kts | 19° |
| 2026-05-06 21:43 | 42.36631 | -71.01190 | 29 ft | 21 kts | 18° |
| 2026-05-06 21:43 | 42.36745 | -71.01138 | 29 ft | 6 kts | 18° |
| 2026-05-06 21:43 | 42.36771 | -71.01141 | 29 ft | 8 kts | 346° |
| 2026-05-06 21:43 | 42.36811 | -71.01175 | 28 ft | 7 kts | 316° |
| 2026-05-06 21:44 | 42.36844 | -71.01219 | 29 ft | 7 kts | 315° |
| 2026-05-06 21:44 | 42.36840 | -71.01276 | 29 ft | 7 kts | 241° |
| 2026-05-06 21:44 | 42.36843 | -71.01335 | 29 ft | 7 kts | 295° |
| 2026-05-06 21:44 | 42.36856 | -71.01393 | 29 ft | 7 kts | 256° |
| 2026-05-06 21:45 | 42.36850 | -71.01422 | 29 ft | 1 kts | 252° |
| 2026-05-06 21:45 | 42.36847 | -71.01433 | 29 ft | 2 kts | 250° |
| 2026-05-06 21:45 | 42.36841 | -71.01452 | 29 ft | 2 kts | 248° |
| 2026-05-06 21:45 | 42.36836 | -71.01467 | 29 ft | 0 kts | 248° |
| 2026-05-06 21:46 | 42.36837 | -71.01465 | 29 ft | 0 kts | 248° |